Flight Track Log - Related Links

Times and Time Zones

All times are in EDT time to prevent confusion due to time zone crossing. See the GJS6234 flight status page for this flight to view local times or setup timezone preferences in your user account.


Time Position Orientation Groundspeed Altitude Reporting Facility
EDT Latitude Longitude Course Direction KTS MPH feet Rate Location/Type
Thu 05:17:58 PM 40.7500 -73.8167 313° West 179 206 2,100  Level New York TRACON
Thu 05:18:58 PM 40.8000 -73.7667 37° Northeast 248 285 4,700 2,600 Climbing New York TRACON
Thu 05:19:58 PM 40.8500 -73.8167 323° Northwest 259 298 7,300 2,550 Climbing New York TRACON
Thu 05:20:58 PM 40.9000 -73.9000 308° West 270 311 9,800 2,750 Climbing New York TRACON
Thu 05:21:58 PM 40.9333 -73.9833 298° West 280 322 12,800 2,150 Climbing New York TRACON
Thu 05:22:58 PM 40.9833 -74.0833 304° West 325 374 14,100 1,116 Climbing New York TRACON
Thu 05:23:00 PM 41.0698 -74.3353 313° West  Level FlightAware Approximate
Thu 05:24:50 PM 41.0844 -74.2836 304° West 365 420 16,000  Level New York Center
Thu 05:25:50 PM 41.1353 -74.3881 303° West 370 426 16,000  Level New York Center
Thu 05:26:50 PM 41.1961 -74.5128 303° West 375 432 16,000 347 Level New York Center
Thu 05:27:51 PM 41.2550 -74.6236 305° West 375 432 16,700 1,210 Climbing New York Center
Thu 05:28:49 PM 41.3203 -74.7297 309° West 375 432 18,400 1,600 Climbing New York Center
Thu 05:29:51 PM 41.3814 -74.8272 310° West 375 432 19,900 1,500 Climbing New York Center
Thu 05:30:49 PM 41.4525 -74.9367 311° West 385 443 21,400 1,068 Climbing New York Center
Thu 05:31:49 PM 41.5236 -75.0492 310° West 385 443 22,000 300 Climbing New York Center
Thu 05:32:49 PM 41.6033 -75.1458 318° Northwest 390 449 22,000  Level New York Center
Thu 05:34:30 PM 41.7556 -75.3011 323° Northwest 381 438 22,000  Level Boston Center
Thu 05:35:31 PM 41.8542 -75.3642 335° Northwest 381 438 22,000  Level Boston Center
Thu 05:36:42 PM 41.9731 -75.4367 336° Northwest 386 444 22,000  Level Boston Center
Thu 05:37:42 PM 42.0736 -75.5000 335° Northwest 392 451 22,000 -200 Level Boston Center
Thu 05:38:42 PM 42.1719 -75.5639 334° Northwest 392 451 21,600 -1,091 Descending Boston Center
Thu 05:39:54 PM 42.2681 -75.6247 335° Northwest 392 451 19,600 -1,968 Descending Boston Center
Thu 05:40:47 PM 42.3725 -75.6947 334° Northwest 374 430 17,500 -2,045 Descending Boston Center
Thu 05:42:06 PM 42.4811 -75.7622 335° Northwest 370 426 15,100 -2,120 Descending Boston Center
Thu 05:43:00 PM 42.5650 -75.8175 334° Northwest 345 397 12,800 -2,087 Descending Boston Center
Thu 05:44:01 PM 42.6547 -75.8761 334° Northwest 335 386 11,100 -1,359 Descending Boston Center
Thu 05:45:08 PM 42.7344 -75.9286 334° Northwest 282 325 9,900 -1,534 Descending Boston Center
Thu 05:46:14 PM 42.8128 -75.9586 344° North 274 315 7,700 -1,890 Descending Boston Center
Thu 05:47:15 PM 42.8875 -75.9003 30° Northeast 289 333 5,900 -1,574 Descending Boston Center
Thu 05:48:16 PM 42.9578 -75.8506 27° Northeast 282 325 4,500 -850 Descending Boston Center
Thu 05:49:22 PM 43.0297 -75.8231 16° North 262 302 4,100 -358 Descending Boston Center
Thu 05:50:30 PM 43.0981 -75.8356 352° North 244 281 3,700 -709 Descending Boston Center
Thu 05:51:12 PM 43.1147 -75.9047 288° West 203 234 2,800 -1,133 Descending Boston Center
Thu 05:52:00 PM 43.1128 -75.9700 268° West 203 234 2,000 -750 Descending Boston Center
Thu 05:52:32 PM 43.1161 -75.9986 279° West 176 203 1,800 -537 Descending Boston Center
Thu 05:53:07 PM 43.1106 -76.0411 260° West 163 188 1,400 -771 Descending Boston Center
Thu 05:53:42 PM 43.1119 -76.0639 275° West 164 189 900 -632 Descending Boston Center
Thu 05:54:42 PM 43.1103 -76.1122 267° West 148 170 400 -500 Descending Boston Center

Login

Don't have an account? Register now (free) for customized features, flight alerts, and more!